sensor_id;sensor_type;location;lat;lon;timestamp;temperature;humidity
76613;DHT22;65507;48.454;-2.058;2023-06-19T00:00:56;17.50;65.30
76613;DHT22;65507;48.454;-2.058;2023-06-19T00:03:21;17.50;65.40
76613;DHT22;65507;48.454;-2.058;2023-06-19T00:05:47;17.50;65.40
76613;DHT22;65507;48.454;-2.058;2023-06-19T00:08:12;17.40;65.30
76613;DHT22;65507;48.454;-2.058;2023-06-19T00:10:38;17.50;65.60
76613;DHT22;65507;48.454;-2.058;2023-06-19T00:13:03;17.50;65.30
76613;DHT22;65507;48.454;-2.058;2023-06-19T00:15:29;17.50;65.40
76613;DHT22;65507;48.454;-2.058;2023-06-19T00:17:55;17.40;65.40
76613;DHT22;65507;48.454;-2.058;2023-06-19T00:20:21;17.40;65.30
76613;DHT22;65507;48.454;-2.058;2023-06-19T00:22:47;17.40;65.40
76613;DHT22;65507;48.454;-2.058;2023-06-19T00:25:17;17.40;65.40
76613;DHT22;65507;48.454;-2.058;2023-06-19T00:27:43;17.40;65.40
76613;DHT22;65507;48.454;-2.058;2023-06-19T00:30:08;17.40;65.40
76613;DHT22;65507;48.454;-2.058;2023-06-19T00:32:34;17.40;65.40
76613;DHT22;65507;48.454;-2.058;2023-06-19T00:35:14;17.40;65.30
76613;DHT22;65507;48.454;-2.058;2023-06-19T00:37:40;17.40;65.30
76613;DHT22;65507;48.454;-2.058;2023-06-19T00:40:29;17.40;65.30
76613;DHT22;65507;48.454;-2.058;2023-06-19T00:42:55;17.50;65.30
76613;DHT22;65507;48.454;-2.058;2023-06-19T00:45:20;17.40;65.30
76613;DHT22;65507;48.454;-2.058;2023-06-19T00:47:46;17.40;65.30
76613;DHT22;65507;48.454;-2.058;2023-06-19T00:50:11;17.40;65.50
76613;DHT22;65507;48.454;-2.058;2023-06-19T00:52:37;17.40;65.40
76613;DHT22;65507;48.454;-2.058;2023-06-19T00:55:03;17.40;65.50
76613;DHT22;65507;48.454;-2.058;2023-06-19T00:57:30;17.40;65.50
76613;DHT22;65507;48.454;-2.058;2023-06-19T00:59:56;17.40;65.50
76613;DHT22;65507;48.454;-2.058;2023-06-19T01:02:22;17.30;65.50
76613;DHT22;65507;48.454;-2.058;2023-06-19T01:04:49;17.30;65.60
76613;DHT22;65507;48.454;-2.058;2023-06-19T01:07:15;17.30;65.50
76613;DHT22;65507;48.454;-2.058;2023-06-19T01:09:53;17.30;65.60
76613;DHT22;65507;48.454;-2.058;2023-06-19T01:12:23;17.30;65.60
76613;DHT22;65507;48.454;-2.058;2023-06-19T01:14:58;17.30;65.70
76613;DHT22;65507;48.454;-2.058;2023-06-19T01:17:27;17.40;65.60
76613;DHT22;65507;48.454;-2.058;2023-06-19T01:19:56;17.30;65.50
76613;DHT22;65507;48.454;-2.058;2023-06-19T01:22:28;17.30;65.50
76613;DHT22;65507;48.454;-2.058;2023-06-19T01:24:54;17.30;65.50
76613;DHT22;65507;48.454;-2.058;2023-06-19T01:27:20;17.30;65.50
76613;DHT22;65507;48.454;-2.058;2023-06-19T01:29:46;17.30;65.50
76613;DHT22;65507;48.454;-2.058;2023-06-19T01:32:31;17.30;65.50
76613;DHT22;65507;48.454;-2.058;2023-06-19T01:34:58;17.30;65.60
76613;DHT22;65507;48.454;-2.058;2023-06-19T01:37:24;17.30;65.60
76613;DHT22;65507;48.454;-2.058;2023-06-19T01:39:54;17.30;66.50
76613;DHT22;65507;48.454;-2.058;2023-06-19T01:42:21;17.30;65.80
76613;DHT22;65507;48.454;-2.058;2023-06-19T01:44:47;17.20;65.90
76613;DHT22;65507;48.454;-2.058;2023-06-19T01:47:12;17.20;66.00
76613;DHT22;65507;48.454;-2.058;2023-06-19T01:49:38;17.10;66.10
76613;DHT22;65507;48.454;-2.058;2023-06-19T01:52:04;17.00;66.30
76613;DHT22;65507;48.454;-2.058;2023-06-19T01:54:30;17.00;66.30
76613;DHT22;65507;48.454;-2.058;2023-06-19T01:56:56;16.90;66.40
76613;DHT22;65507;48.454;-2.058;2023-06-19T01:59:21;16.90;66.50
76613;DHT22;65507;48.454;-2.058;2023-06-19T02:01:47;16.80;66.60
76613;DHT22;65507;48.454;-2.058;2023-06-19T02:04:13;16.80;66.60
76613;DHT22;65507;48.454;-2.058;2023-06-19T02:06:38;16.80;66.60
76613;DHT22;65507;48.454;-2.058;2023-06-19T02:09:04;16.80;66.70
76613;DHT22;65507;48.454;-2.058;2023-06-19T02:11:29;16.70;66.60
76613;DHT22;65507;48.454;-2.058;2023-06-19T02:13:55;16.70;66.60
76613;DHT22;65507;48.454;-2.058;2023-06-19T02:16:20;16.70;66.70
76613;DHT22;65507;48.454;-2.058;2023-06-19T02:18:46;16.70;66.60
76613;DHT22;65507;48.454;-2.058;2023-06-19T02:21:11;16.70;66.70
76613;DHT22;65507;48.454;-2.058;2023-06-19T02:23:37;16.70;66.70
76613;DHT22;65507;48.454;-2.058;2023-06-19T02:26:02;16.70;66.50
76613;DHT22;65507;48.454;-2.058;2023-06-19T02:28:28;16.70;66.50
76613;DHT22;65507;48.454;-2.058;2023-06-19T02:30:54;16.70;66.50
76613;DHT22;65507;48.454;-2.058;2023-06-19T02:33:19;16.70;66.50
76613;DHT22;65507;48.454;-2.058;2023-06-19T02:35:45;16.70;66.40
76613;DHT22;65507;48.454;-2.058;2023-06-19T02:38:11;16.70;66.50
76613;DHT22;65507;48.454;-2.058;2023-06-19T02:40:38;16.70;67.10
76613;DHT22;65507;48.454;-2.058;2023-06-19T02:43:03;16.80;66.40
76613;DHT22;65507;48.454;-2.058;2023-06-19T02:45:29;16.80;66.60
76613;DHT22;65507;48.454;-2.058;2023-06-19T02:47:54;16.80;66.20
76613;DHT22;65507;48.454;-2.058;2023-06-19T02:50:20;16.80;66.10
76613;DHT22;65507;48.454;-2.058;2023-06-19T02:52:46;16.90;66.20
76613;DHT22;65507;48.454;-2.058;2023-06-19T02:55:11;16.90;66.00
76613;DHT22;65507;48.454;-2.058;2023-06-19T02:57:37;16.90;66.00
76613;DHT22;65507;48.454;-2.058;2023-06-19T03:00:03;16.90;66.00
76613;DHT22;65507;48.454;-2.058;2023-06-19T03:02:31;17.00;66.00
76613;DHT22;65507;48.454;-2.058;2023-06-19T03:04:56;17.00;66.00
76613;DHT22;65507;48.454;-2.058;2023-06-19T03:07:22;17.00;66.00
76613;DHT22;65507;48.454;-2.058;2023-06-19T03:09:47;17.10;66.10
76613;DHT22;65507;48.454;-2.058;2023-06-19T03:12:13;17.10;66.00
76613;DHT22;65507;48.454;-2.058;2023-06-19T03:14:39;17.20;65.90
76613;DHT22;65507;48.454;-2.058;2023-06-19T03:17:05;17.20;66.00
76613;DHT22;65507;48.454;-2.058;2023-06-19T03:19:30;17.20;66.00
76613;DHT22;65507;48.454;-2.058;2023-06-19T03:21:56;17.20;66.00
76613;DHT22;65507;48.454;-2.058;2023-06-19T03:24:22;17.20;65.90
76613;DHT22;65507;48.454;-2.058;2023-06-19T03:26:47;17.30;66.10
76613;DHT22;65507;48.454;-2.058;2023-06-19T03:29:13;17.20;66.10
76613;DHT22;65507;48.454;-2.058;2023-06-19T03:31:38;17.20;66.40
76613;DHT22;65507;48.454;-2.058;2023-06-19T03:34:05;17.20;66.20
76613;DHT22;65507;48.454;-2.058;2023-06-19T03:36:30;17.10;66.20
76613;DHT22;65507;48.454;-2.058;2023-06-19T03:38:56;17.10;66.70
76613;DHT22;65507;48.454;-2.058;2023-06-19T03:41:21;17.10;66.60
76613;DHT22;65507;48.454;-2.058;2023-06-19T03:43:47;17.00;66.70
76613;DHT22;65507;48.454;-2.058;2023-06-19T03:46:12;17.00;66.70
76613;DHT22;65507;48.454;-2.058;2023-06-19T03:48:38;15.70;66.10
76613;DHT22;65507;48.454;-2.058;2023-06-19T03:51:03;16.90;67.00
76613;DHT22;65507;48.454;-2.058;2023-06-19T03:53:29;16.90;66.90
76613;DHT22;65507;48.454;-2.058;2023-06-19T03:55:55;16.90;66.80
76613;DHT22;65507;48.454;-2.058;2023-06-19T03:58:20;16.90;66.70
76613;DHT22;65507;48.454;-2.058;2023-06-19T04:00:46;17.00;66.80
76613;DHT22;65507;48.454;-2.058;2023-06-19T04:03:11;17.00;66.70
76613;DHT22;65507;48.454;-2.058;2023-06-19T04:05:37;17.10;66.60
76613;DHT22;65507;48.454;-2.058;2023-06-19T04:08:04;17.10;66.40
76613;DHT22;65507;48.454;-2.058;2023-06-19T04:10:29;17.20;66.40
76613;DHT22;65507;48.454;-2.058;2023-06-19T04:12:55;17.30;66.30
76613;DHT22;65507;48.454;-2.058;2023-06-19T04:15:21;17.30;67.00
76613;DHT22;65507;48.454;-2.058;2023-06-19T04:17:47;17.30;66.10
76613;DHT22;65507;48.454;-2.058;2023-06-19T04:20:12;17.30;66.10
76613;DHT22;65507;48.454;-2.058;2023-06-19T04:22:38;17.40;66.10
76613;DHT22;65507;48.454;-2.058;2023-06-19T04:25:05;17.40;66.20
76613;DHT22;65507;48.454;-2.058;2023-06-19T04:27:31;17.40;66.10
76613;DHT22;65507;48.454;-2.058;2023-06-19T04:29:56;17.40;66.20
76613;DHT22;65507;48.454;-2.058;2023-06-19T04:32:22;17.40;66.10
76613;DHT22;65507;48.454;-2.058;2023-06-19T04:34:47;17.40;66.10
76613;DHT22;65507;48.454;-2.058;2023-06-19T04:37:14;17.40;66.20
76613;DHT22;65507;48.454;-2.058;2023-06-19T04:39:44;17.40;66.20
76613;DHT22;65507;48.454;-2.058;2023-06-19T04:42:10;17.40;66.20
76613;DHT22;65507;48.454;-2.058;2023-06-19T04:44:35;17.40;66.40
76613;DHT22;65507;48.454;-2.058;2023-06-19T04:47:01;17.40;66.30
76613;DHT22;65507;48.454;-2.058;2023-06-19T04:49:30;17.40;66.30
76613;DHT22;65507;48.454;-2.058;2023-06-19T04:51:58;17.50;67.20
76613;DHT22;65507;48.454;-2.058;2023-06-19T04:54:24;17.50;66.30
76613;DHT22;65507;48.454;-2.058;2023-06-19T04:56:50;17.50;66.20
76613;DHT22;65507;48.454;-2.058;2023-06-19T04:59:16;17.50;66.30
76613;DHT22;65507;48.454;-2.058;2023-06-19T05:01:43;17.50;66.30
76613;DHT22;65507;48.454;-2.058;2023-06-19T05:04:09;17.50;66.30
76613;DHT22;65507;48.454;-2.058;2023-06-19T05:06:36;17.60;66.40
76613;DHT22;65507;48.454;-2.058;2023-06-19T05:09:02;17.60;66.40
76613;DHT22;65507;48.454;-2.058;2023-06-19T05:11:28;17.60;66.30
76613;DHT22;65507;48.454;-2.058;2023-06-19T05:13:53;17.60;66.30
76613;DHT22;65507;48.454;-2.058;2023-06-19T05:16:19;17.70;66.50
76613;DHT22;65507;48.454;-2.058;2023-06-19T05:18:45;17.70;66.60
76613;DHT22;65507;48.454;-2.058;2023-06-19T05:21:10;17.70;66.40
76613;DHT22;65507;48.454;-2.058;2023-06-19T05:23:36;17.70;66.50
76613;DHT22;65507;48.454;-2.058;2023-06-19T05:26:03;17.70;66.40
76613;DHT22;65507;48.454;-2.058;2023-06-19T05:28:29;17.70;66.70
76613;DHT22;65507;48.454;-2.058;2023-06-19T05:30:54;17.70;66.60
76613;DHT22;65507;48.454;-2.058;2023-06-19T05:33:20;17.70;66.60
76613;DHT22;65507;48.454;-2.058;2023-06-19T05:35:45;17.70;66.70
76613;DHT22;65507;48.454;-2.058;2023-06-19T05:38:17;17.80;66.60
76613;DHT22;65507;48.454;-2.058;2023-06-19T05:40:43;17.80;66.40
76613;DHT22;65507;48.454;-2.058;2023-06-19T05:43:08;17.90;66.40
76613;DHT22;65507;48.454;-2.058;2023-06-19T05:45:34;19.20;66.90
76613;DHT22;65507;48.454;-2.058;2023-06-19T05:48:00;17.70;66.20
76613;DHT22;65507;48.454;-2.058;2023-06-19T05:50:25;18.00;66.10
76613;DHT22;65507;48.454;-2.058;2023-06-19T05:52:51;16.40;65.10
76613;DHT22;65507;48.454;-2.058;2023-06-19T05:55:16;18.20;66.00
76613;DHT22;65507;48.454;-2.058;2023-06-19T05:57:42;18.30;65.90
76613;DHT22;65507;48.454;-2.058;2023-06-19T06:00:08;18.40;65.60
76613;DHT22;65507;48.454;-2.058;2023-06-19T06:02:36;18.60;65.50
76613;DHT22;65507;48.454;-2.058;2023-06-19T06:05:02;18.60;65.20
76613;DHT22;65507;48.454;-2.058;2023-06-19T06:07:27;18.80;65.10
76613;DHT22;65507;48.454;-2.058;2023-06-19T06:09:54;19.00;65.00
76613;DHT22;65507;48.454;-2.058;2023-06-19T06:12:19;18.90;65.00
76613;DHT22;65507;48.454;-2.058;2023-06-19T06:14:45;18.90;65.10
76613;DHT22;65507;48.454;-2.058;2023-06-19T06:17:10;19.00;65.20
76613;DHT22;65507;48.454;-2.058;2023-06-19T06:19:36;19.00;65.40
76613;DHT22;65507;48.454;-2.058;2023-06-19T06:22:02;18.90;65.40
76613;DHT22;65507;48.454;-2.058;2023-06-19T06:24:28;18.90;65.70
76613;DHT22;65507;48.454;-2.058;2023-06-19T06:26:53;18.90;65.90
76613;DHT22;65507;48.454;-2.058;2023-06-19T06:29:19;18.80;65.80
76613;DHT22;65507;48.454;-2.058;2023-06-19T06:31:45;18.80;66.00
76613;DHT22;65507;48.454;-2.058;2023-06-19T06:34:11;18.80;66.20
76613;DHT22;65507;48.454;-2.058;2023-06-19T06:36:36;18.80;66.20
76613;DHT22;65507;48.454;-2.058;2023-06-19T06:39:02;18.90;66.00
76613;DHT22;65507;48.454;-2.058;2023-06-19T06:41:28;18.90;65.90
76613;DHT22;65507;48.454;-2.058;2023-06-19T06:43:53;19.00;66.30
76613;DHT22;65507;48.454;-2.058;2023-06-19T06:46:20;19.10;65.80
76613;DHT22;65507;48.454;-2.058;2023-06-19T06:48:46;19.20;65.70
76613;DHT22;65507;48.454;-2.058;2023-06-19T06:51:12;19.20;65.60
76613;DHT22;65507;48.454;-2.058;2023-06-19T06:53:37;19.30;65.50
76613;DHT22;65507;48.454;-2.058;2023-06-19T06:56:03;19.40;65.50
76613;DHT22;65507;48.454;-2.058;2023-06-19T06:58:29;19.50;65.60
76613;DHT22;65507;48.454;-2.058;2023-06-19T07:00:55;19.50;65.40
76613;DHT22;65507;48.454;-2.058;2023-06-19T07:03:21;19.40;65.50
76613;DHT22;65507;48.454;-2.058;2023-06-19T07:05:47;19.40;65.60
76613;DHT22;65507;48.454;-2.058;2023-06-19T07:08:13;19.50;65.70
76613;DHT22;65507;48.454;-2.058;2023-06-19T07:10:39;19.50;65.60
76613;DHT22;65507;48.454;-2.058;2023-06-19T07:13:05;19.50;65.50
76613;DHT22;65507;48.454;-2.058;2023-06-19T07:15:31;19.60;65.50
76613;DHT22;65507;48.454;-2.058;2023-06-19T07:17:57;19.70;65.50
76613;DHT22;65507;48.454;-2.058;2023-06-19T07:20:22;19.80;65.30
76613;DHT22;65507;48.454;-2.058;2023-06-19T07:22:50;19.90;65.20
76613;DHT22;65507;48.454;-2.058;2023-06-19T07:25:16;20.00;65.10
76613;DHT22;65507;48.454;-2.058;2023-06-19T07:27:42;20.00;65.00
76613;DHT22;65507;48.454;-2.058;2023-06-19T07:30:08;20.10;65.10
76613;DHT22;65507;48.454;-2.058;2023-06-19T07:32:34;20.20;64.90
76613;DHT22;65507;48.454;-2.058;2023-06-19T07:35:01;20.20;66.10
76613;DHT22;65507;48.454;-2.058;2023-06-19T07:37:27;20.20;65.00
76613;DHT22;65507;48.454;-2.058;2023-06-19T07:39:53;20.30;64.90
76613;DHT22;65507;48.454;-2.058;2023-06-19T07:42:18;20.30;64.90
76613;DHT22;65507;48.454;-2.058;2023-06-19T07:44:44;20.30;65.00
76613;DHT22;65507;48.454;-2.058;2023-06-19T07:47:10;20.30;65.10
76613;DHT22;65507;48.454;-2.058;2023-06-19T07:49:36;20.40;65.20
76613;DHT22;65507;48.454;-2.058;2023-06-19T07:52:02;20.50;65.10
76613;DHT22;65507;48.454;-2.058;2023-06-19T07:54:27;20.60;64.90
76613;DHT22;65507;48.454;-2.058;2023-06-19T07:56:53;20.70;64.80
76613;DHT22;65507;48.454;-2.058;2023-06-19T07:59:19;20.70;65.30
76613;DHT22;65507;48.454;-2.058;2023-06-19T08:01:45;20.80;64.70
76613;DHT22;65507;48.454;-2.058;2023-06-19T08:04:10;20.90;65.10
76613;DHT22;65507;48.454;-2.058;2023-06-19T08:06:36;20.90;64.70
76613;DHT22;65507;48.454;-2.058;2023-06-19T08:09:02;20.90;64.80
76613;DHT22;65507;48.454;-2.058;2023-06-19T08:11:27;21.00;64.70
76613;DHT22;65507;48.454;-2.058;2023-06-19T08:13:53;21.00;64.80
76613;DHT22;65507;48.454;-2.058;2023-06-19T08:16:19;21.10;64.70
76613;DHT22;65507;48.454;-2.058;2023-06-19T08:18:45;21.20;64.60
76613;DHT22;65507;48.454;-2.058;2023-06-19T08:21:10;21.30;64.40
76613;DHT22;65507;48.454;-2.058;2023-06-19T08:23:36;23.10;65.20
76613;DHT22;65507;48.454;-2.058;2023-06-19T08:26:03;21.50;64.10
76613;DHT22;65507;48.454;-2.058;2023-06-19T08:28:30;21.60;64.00
76613;DHT22;65507;48.454;-2.058;2023-06-19T08:30:56;21.70;63.90
76613;DHT22;65507;48.454;-2.058;2023-06-19T08:33:21;21.80;64.00
76613;DHT22;65507;48.454;-2.058;2023-06-19T08:35:48;21.80;63.90
76613;DHT22;65507;48.454;-2.058;2023-06-19T08:38:13;21.90;63.90
76613;DHT22;65507;48.454;-2.058;2023-06-19T08:40:40;22.00;63.80
76613;DHT22;65507;48.454;-2.058;2023-06-19T08:43:06;22.00;63.80
76613;DHT22;65507;48.454;-2.058;2023-06-19T08:45:31;19.90;62.90
76613;DHT22;65507;48.454;-2.058;2023-06-19T08:47:57;21.90;64.20
76613;DHT22;65507;48.454;-2.058;2023-06-19T08:50:23;21.80;64.40
76613;DHT22;65507;48.454;-2.058;2023-06-19T08:52:48;21.80;64.40
76613;DHT22;65507;48.454;-2.058;2023-06-19T08:55:14;21.90;64.30
76613;DHT22;65507;48.454;-2.058;2023-06-19T08:57:40;22.00;64.10
76613;DHT22;65507;48.454;-2.058;2023-06-19T09:00:06;22.10;64.00
76613;DHT22;65507;48.454;-2.058;2023-06-19T09:02:42;22.20;63.90
76613;DHT22;65507;48.454;-2.058;2023-06-19T09:05:25;22.20;63.70
76613;DHT22;65507;48.454;-2.058;2023-06-19T09:08:00;22.20;63.90
76613;DHT22;65507;48.454;-2.058;2023-06-19T09:10:28;22.20;64.00
76613;DHT22;65507;48.454;-2.058;2023-06-19T09:13:01;22.30;63.90
76613;DHT22;65507;48.454;-2.058;2023-06-19T09:15:30;22.40;63.80
76613;DHT22;65507;48.454;-2.058;2023-06-19T09:18:06;22.50;63.70
76613;DHT22;65507;48.454;-2.058;2023-06-19T09:20:41;22.70;63.50
76613;DHT22;65507;48.454;-2.058;2023-06-19T09:23:10;22.80;63.10
76613;DHT22;65507;48.454;-2.058;2023-06-19T09:25:49;23.00;63.30
76613;DHT22;65507;48.454;-2.058;2023-06-19T09:28:25;23.20;62.60
76613;DHT22;65507;48.454;-2.058;2023-06-19T09:30:54;23.30;62.50
76613;DHT22;65507;48.454;-2.058;2023-06-19T09:33:20;23.30;62.60
76613;DHT22;65507;48.454;-2.058;2023-06-19T09:35:46;23.30;62.60
76613;DHT22;65507;48.454;-2.058;2023-06-19T09:38:12;23.40;62.50
76613;DHT22;65507;48.454;-2.058;2023-06-19T09:40:38;23.50;62.50
76613;DHT22;65507;48.454;-2.058;2023-06-19T09:43:04;23.50;62.50
76613;DHT22;65507;48.454;-2.058;2023-06-19T09:45:30;25.40;63.70
76613;DHT22;65507;48.454;-2.058;2023-06-19T09:47:56;23.60;62.60
76613;DHT22;65507;48.454;-2.058;2023-06-19T09:50:22;23.70;62.40
76613;DHT22;65507;48.454;-2.058;2023-06-19T09:52:47;23.80;62.40
76613;DHT22;65507;48.454;-2.058;2023-06-19T09:55:16;23.80;62.30
76613;DHT22;65507;48.454;-2.058;2023-06-19T09:57:43;23.90;62.20
76613;DHT22;65507;48.454;-2.058;2023-06-19T10:00:09;24.10;62.10
76613;DHT22;65507;48.454;-2.058;2023-06-19T10:02:41;24.20;61.80
76613;DHT22;65507;48.454;-2.058;2023-06-19T10:05:07;24.40;61.60
76613;DHT22;65507;48.454;-2.058;2023-06-19T10:07:38;24.50;61.50
76613;DHT22;65507;48.454;-2.058;2023-06-19T10:10:06;24.60;61.40
76613;DHT22;65507;48.454;-2.058;2023-06-19T10:12:36;24.70;61.40
76613;DHT22;65507;48.454;-2.058;2023-06-19T10:15:08;24.80;61.30
76613;DHT22;65507;48.454;-2.058;2023-06-19T10:17:34;24.90;61.30
76613;DHT22;65507;48.454;-2.058;2023-06-19T10:19:59;24.80;61.40
76613;DHT22;65507;48.454;-2.058;2023-06-19T10:22:29;24.90;61.50
76613;DHT22;65507;48.454;-2.058;2023-06-19T10:24:55;24.90;61.50
76613;DHT22;65507;48.454;-2.058;2023-06-19T10:27:21;24.90;61.40
76613;DHT22;65507;48.454;-2.058;2023-06-19T10:29:54;25.00;61.50
76613;DHT22;65507;48.454;-2.058;2023-06-19T10:32:20;25.00;61.60
76613;DHT22;65507;48.454;-2.058;2023-06-19T10:34:46;25.00;61.60
76613;DHT22;65507;48.454;-2.058;2023-06-19T10:37:12;25.10;61.40
76613;DHT22;65507;48.454;-2.058;2023-06-19T10:39:38;25.10;61.50
76613;DHT22;65507;48.454;-2.058;2023-06-19T10:42:07;25.10;62.50
76613;DHT22;65507;48.454;-2.058;2023-06-19T10:44:33;25.10;61.50
76613;DHT22;65507;48.454;-2.058;2023-06-19T10:46:59;25.20;61.50
76613;DHT22;65507;48.454;-2.058;2023-06-19T10:49:25;25.20;62.20
76613;DHT22;65507;48.454;-2.058;2023-06-19T10:51:50;25.40;61.30
76613;DHT22;65507;48.454;-2.058;2023-06-19T10:54:18;25.50;61.20
76613;DHT22;65507;48.454;-2.058;2023-06-19T10:56:44;25.60;61.00
76613;DHT22;65507;48.454;-2.058;2023-06-19T10:59:14;25.60;61.20
76613;DHT22;65507;48.454;-2.058;2023-06-19T11:01:40;25.80;60.90
76613;DHT22;65507;48.454;-2.058;2023-06-19T11:04:07;25.80;60.80
76613;DHT22;65507;48.454;-2.058;2023-06-19T11:06:33;25.80;61.00
76613;DHT22;65507;48.454;-2.058;2023-06-19T11:08:59;25.70;60.90
76613;DHT22;65507;48.454;-2.058;2023-06-19T11:11:35;25.60;61.30
76613;DHT22;65507;48.454;-2.058;2023-06-19T11:14:01;25.50;61.40
76613;DHT22;65507;48.454;-2.058;2023-06-19T11:16:27;25.50;61.50
76613;DHT22;65507;48.454;-2.058;2023-06-19T11:18:56;25.60;61.50
76613;DHT22;65507;48.454;-2.058;2023-06-19T11:21:32;25.70;61.40
76613;DHT22;65507;48.454;-2.058;2023-06-19T11:24:02;25.70;61.00
76613;DHT22;65507;48.454;-2.058;2023-06-19T11:26:28;25.70;61.10
76613;DHT22;65507;48.454;-2.058;2023-06-19T11:28:53;25.60;62.10
76613;DHT22;65507;48.454;-2.058;2023-06-19T11:31:24;25.60;61.20
76613;DHT22;65507;48.454;-2.058;2023-06-19T11:34:00;25.50;61.40
76613;DHT22;65507;48.454;-2.058;2023-06-19T11:36:27;25.40;61.50
76613;DHT22;65507;48.454;-2.058;2023-06-19T11:38:54;25.30;62.20
76613;DHT22;65507;48.454;-2.058;2023-06-19T11:41:26;25.30;61.90
76613;DHT22;65507;48.454;-2.058;2023-06-19T11:43:59;25.30;61.90
76613;DHT22;65507;48.454;-2.058;2023-06-19T11:46:29;25.30;61.70
76613;DHT22;65507;48.454;-2.058;2023-06-19T11:48:56;25.40;61.40
76613;DHT22;65507;48.454;-2.058;2023-06-19T11:51:22;25.60;61.20
76613;DHT22;65507;48.454;-2.058;2023-06-19T11:53:49;25.70;61.00
76613;DHT22;65507;48.454;-2.058;2023-06-19T11:56:14;25.60;61.00
76613;DHT22;65507;48.454;-2.058;2023-06-19T11:58:40;25.60;61.10
76613;DHT22;65507;48.454;-2.058;2023-06-19T12:01:05;25.50;61.20
76613;DHT22;65507;48.454;-2.058;2023-06-19T12:03:31;25.50;62.10
76613;DHT22;65507;48.454;-2.058;2023-06-19T12:05:56;25.50;61.10
76613;DHT22;65507;48.454;-2.058;2023-06-19T12:08:22;25.60;61.00
76613;DHT22;65507;48.454;-2.058;2023-06-19T12:10:48;25.80;60.90
76613;DHT22;65507;48.454;-2.058;2023-06-19T12:13:13;25.80;60.80
76613;DHT22;65507;48.454;-2.058;2023-06-19T12:15:39;25.80;60.80
76613;DHT22;65507;48.454;-2.058;2023-06-19T12:18:04;25.80;60.60
76613;DHT22;65507;48.454;-2.058;2023-06-19T12:20:32;25.80;61.20
76613;DHT22;65507;48.454;-2.058;2023-06-19T12:22:57;25.90;60.50
76613;DHT22;65507;48.454;-2.058;2023-06-19T12:25:23;26.80;60.90
76613;DHT22;65507;48.454;-2.058;2023-06-19T12:27:48;26.10;60.10
76613;DHT22;65507;48.454;-2.058;2023-06-19T12:30:16;26.30;59.90
76613;DHT22;65507;48.454;-2.058;2023-06-19T12:32:42;26.40;59.90
76613;DHT22;65507;48.454;-2.058;2023-06-19T12:35:08;26.50;59.90
76613;DHT22;65507;48.454;-2.058;2023-06-19T12:37:33;26.50;59.70
76613;DHT22;65507;48.454;-2.058;2023-06-19T12:39:59;26.40;59.90
76613;DHT22;65507;48.454;-2.058;2023-06-19T12:42:24;26.40;60.00
76613;DHT22;65507;48.454;-2.058;2023-06-19T12:44:50;26.50;60.10
76613;DHT22;65507;48.454;-2.058;2023-06-19T12:47:15;26.60;60.00
76613;DHT22;65507;48.454;-2.058;2023-06-19T12:49:43;26.70;59.60
76613;DHT22;65507;48.454;-2.058;2023-06-19T12:52:08;26.60;59.80
76613;DHT22;65507;48.454;-2.058;2023-06-19T12:54:34;26.60;60.00
76613;DHT22;65507;48.454;-2.058;2023-06-19T12:57:00;26.60;59.80
76613;DHT22;65507;48.454;-2.058;2023-06-19T12:59:26;26.80;59.70
76613;DHT22;65507;48.454;-2.058;2023-06-19T13:01:51;26.90;59.50
76613;DHT22;65507;48.454;-2.058;2023-06-19T13:04:17;27.00;59.50
76613;DHT22;65507;48.454;-2.058;2023-06-19T13:06:42;26.90;59.60
76613;DHT22;65507;48.454;-2.058;2023-06-19T13:09:08;26.90;59.90
76613;DHT22;65507;48.454;-2.058;2023-06-19T13:11:34;26.80;59.80
76613;DHT22;65507;48.454;-2.058;2023-06-19T13:14:00;26.90;59.90
76613;DHT22;65507;48.454;-2.058;2023-06-19T13:16:25;26.90;59.70
76613;DHT22;65507;48.454;-2.058;2023-06-19T13:18:51;27.00;59.50
76613;DHT22;65507;48.454;-2.058;2023-06-19T13:21:17;27.10;59.40
76613;DHT22;65507;48.454;-2.058;2023-06-19T13:23:42;27.10;59.40
76613;DHT22;65507;48.454;-2.058;2023-06-19T13:26:08;27.00;59.40
76613;DHT22;65507;48.454;-2.058;2023-06-19T13:28:34;27.00;59.40
76613;DHT22;65507;48.454;-2.058;2023-06-19T13:31:02;27.10;59.40
76613;DHT22;65507;48.454;-2.058;2023-06-19T13:33:28;27.30;59.00
76613;DHT22;65507;48.454;-2.058;2023-06-19T13:35:53;27.40;58.90
76613;DHT22;65507;48.454;-2.058;2023-06-19T13:38:19;27.50;58.70
76613;DHT22;65507;48.454;-2.058;2023-06-19T13:40:44;27.60;58.90
76613;DHT22;65507;48.454;-2.058;2023-06-19T13:43:10;27.60;58.60
76613;DHT22;65507;48.454;-2.058;2023-06-19T13:45:36;27.60;58.70
76613;DHT22;65507;48.454;-2.058;2023-06-19T13:48:04;27.60;58.90
76613;DHT22;65507;48.454;-2.058;2023-06-19T13:50:29;27.50;59.00
76613;DHT22;65507;48.454;-2.058;2023-06-19T13:52:55;27.50;59.00
76613;DHT22;65507;48.454;-2.058;2023-06-19T13:55:20;27.50;59.00
76613;DHT22;65507;48.454;-2.058;2023-06-19T13:57:46;27.60;58.90
76613;DHT22;65507;48.454;-2.058;2023-06-19T14:00:12;27.70;58.70
76613;DHT22;65507;48.454;-2.058;2023-06-19T14:02:37;27.80;58.70
76613;DHT22;65507;48.454;-2.058;2023-06-19T14:05:04;27.80;58.70
76613;DHT22;65507;48.454;-2.058;2023-06-19T14:07:30;27.80;58.50
76613;DHT22;65507;48.454;-2.058;2023-06-19T14:09:55;27.80;58.60
76613;DHT22;65507;48.454;-2.058;2023-06-19T14:12:21;27.70;58.60
76613;DHT22;65507;48.454;-2.058;2023-06-19T14:14:47;27.70;58.70
76613;DHT22;65507;48.454;-2.058;2023-06-19T14:17:17;27.80;58.70
76613;DHT22;65507;48.454;-2.058;2023-06-19T14:19:42;27.80;58.80
76613;DHT22;65507;48.454;-2.058;2023-06-19T14:22:08;27.80;58.70
76613;DHT22;65507;48.454;-2.058;2023-06-19T14:24:33;27.80;58.70
76613;DHT22;65507;48.454;-2.058;2023-06-19T14:26:59;27.80;58.60
76613;DHT22;65507;48.454;-2.058;2023-06-19T14:29:24;27.80;58.50
76613;DHT22;65507;48.454;-2.058;2023-06-19T14:31:50;27.60;58.50
76613;DHT22;65507;48.454;-2.058;2023-06-19T14:34:16;27.70;58.60
76613;DHT22;65507;48.454;-2.058;2023-06-19T14:36:42;27.70;58.60
76613;DHT22;65507;48.454;-2.058;2023-06-19T14:39:07;27.70;58.40
76613;DHT22;65507;48.454;-2.058;2023-06-19T14:41:33;27.70;58.50
76613;DHT22;65507;48.454;-2.058;2023-06-19T14:43:58;27.70;59.60
76613;DHT22;65507;48.454;-2.058;2023-06-19T14:46:24;27.60;58.40
76613;DHT22;65507;48.454;-2.058;2023-06-19T14:48:50;27.70;58.50
76613;DHT22;65507;48.454;-2.058;2023-06-19T14:51:16;27.60;58.40
76613;DHT22;65507;48.454;-2.058;2023-06-19T14:53:41;27.60;58.70
76613;DHT22;65507;48.454;-2.058;2023-06-19T14:56:07;27.50;58.60
76613;DHT22;65507;48.454;-2.058;2023-06-19T14:58:32;27.40;59.10
76613;DHT22;65507;48.454;-2.058;2023-06-19T15:00:58;27.30;59.10
76613;DHT22;65507;48.454;-2.058;2023-06-19T15:03:23;27.20;59.10
76613;DHT22;65507;48.454;-2.058;2023-06-19T15:05:49;27.10;59.30
76613;DHT22;65507;48.454;-2.058;2023-06-19T15:08:14;27.00;59.20
76613;DHT22;65507;48.454;-2.058;2023-06-19T15:10:46;26.90;59.30